Time;durP1;ratioP1;P1;durP2;ratioP2;P2;SDS_P1;SDS_P2;PMS_P1;PMS_P2;Temp;Humidity;BMP_temperature;BMP_pressure;BME280_temperature;BME280_humidity;BME280_pressure;Samples;Min_cycle;Max_cycle;Signal;HPM_P1;HPM_P2
2022/08/07 00:00:33;;;;;;;12.80;5.00;;;11.30;99.90;;;;;;4971110;28;20019;-78
2022/08/07 00:02:59;;;;;;;10.73;5.68;;;11.20;99.90;;;;;;4971007;28;20022;-78
2022/08/07 00:05:26;;;;;;;8.25;5.35;;;11.20;99.90;;;;;;4971349;28;20426;-78
2022/08/07 00:07:52;;;;;;;8.70;5.57;;;11.20;99.90;;;;;;4971462;28;20018;-78
2022/08/07 00:10:18;;;;;;;13.93;6.18;;;11.30;99.90;;;;;;4970115;28;20030;-78
2022/08/07 00:12:44;;;;;;;12.15;5.28;;;11.20;99.90;;;;;;4971440;28;20523;-78
2022/08/07 00:15:10;;;;;;;9.38;5.35;;;11.20;99.90;;;;;;4971571;28;20131;-78
2022/08/07 00:17:36;;;;;;;8.00;5.18;;;11.20;99.90;;;;;;4971337;28;20023;-78
2022/08/07 00:20:03;;;;;;;7.15;4.97;;;11.10;99.90;;;;;;4970995;28;20067;-78
2022/08/07 00:22:29;;;;;;;9.27;4.55;;;11.10;99.90;;;;;;4970590;28;20168;-78
2022/08/07 00:24:55;;;;;;;6.80;4.63;;;11.00;99.90;;;;;;4970470;28;20106;-78
2022/08/07 00:27:20;;;;;;;8.70;4.85;;;11.00;99.90;;;;;;4970090;28;20502;-78
2022/08/07 00:29:46;;;;;;;8.20;4.70;;;10.90;99.90;;;;;;4970545;28;20106;-77
2022/08/07 00:32:13;;;;;;;8.77;5.38;;;10.80;99.90;;;;;;4969245;28;20445;-78
2022/08/07 00:34:39;;;;;;;8.60;4.63;;;10.80;99.90;;;;;;4970513;28;20431;-78
2022/08/07 00:37:05;;;;;;;8.57;3.97;;;10.80;99.90;;;;;;4975961;28;20103;-78
2022/08/07 00:39:32;;;;;;;8.38;4.57;;;10.80;99.90;;;;;;4970950;28;20104;-78
2022/08/07 00:41:58;;;;;;;6.88;4.88;;;10.80;99.90;;;;;;4970424;28;20015;-78
2022/08/07 00:44:25;;;;;;;8.38;4.72;;;10.70;99.90;;;;;;4970636;28;20019;-78
2022/08/07 00:46:51;;;;;;;7.82;4.70;;;10.60;99.90;;;;;;4970655;28;20023;-78
2022/08/07 00:49:17;;;;;;;7.00;3.78;;;10.50;99.90;;;;;;4969558;28;20027;-78
2022/08/07 00:51:44;;;;;;;7.47;4.20;;;10.50;99.90;;;;;;4970349;28;20643;-78
2022/08/07 00:54:13;;;;;;;6.65;4.57;;;10.40;99.90;;;;;;4970644;28;20379;-78
2022/08/07 00:56:39;;;;;;;8.10;3.97;;;10.40;99.90;;;;;;4970191;28;20035;-78
2022/08/07 00:59:05;;;;;;;7.53;4.80;;;10.30;99.90;;;;;;4969075;28;20033;-78
2022/08/07 01:01:32;;;;;;;8.65;4.32;;;10.30;99.90;;;;;;4969049;28;20034;-78
2022/08/07 01:03:58;;;;;;;10.48;4.93;;;10.40;99.90;;;;;;4970280;28;20087;-78
2022/08/07 01:06:25;;;;;;;8.80;5.18;;;10.50;99.90;;;;;;4968832;28;20015;-78
2022/08/07 01:08:51;;;;;;;7.60;4.78;;;10.50;99.90;;;;;;4969867;28;20391;-78
2022/08/07 01:11:18;;;;;;;7.78;4.30;;;10.50;99.90;;;;;;4970197;28;20023;-78
2022/08/07 01:13:44;;;;;;;7.32;4.22;;;10.50;99.90;;;;;;4977460;28;20683;-78
2022/08/07 01:16:10;;;;;;;6.93;3.97;;;10.50;99.90;;;;;;4970286;28;20123;-78
2022/08/07 01:18:36;;;;;;;7.20;4.28;;;10.40;99.90;;;;;;4969101;28;20126;-78
2022/08/07 01:21:23;;;;;;;9.45;4.05;;;10.30;99.90;;;;;;4970162;28;20372;-78
2022/08/07 01:23:50;;;;;;;6.50;4.00;;;10.20;99.90;;;;;;4966067;28;20019;-78
2022/08/07 01:26:19;;;;;;;9.65;4.85;;;10.10;99.90;;;;;;4968767;28;20022;-78
2022/08/07 01:28:47;;;;;;;5.63;4.00;;;10.00;99.90;;;;;;4968544;28;20174;-78
2022/08/07 01:31:14;;;;;;;5.28;4.15;;;9.90;99.90;;;;;;4969783;28;20031;-78
2022/08/07 01:33:40;;;;;;;8.02;4.80;;;10.00;99.90;;;;;;4968567;28;20046;-78
2022/08/07 01:36:08;;;;;;;8.55;4.65;;;9.90;99.90;;;;;;4970001;28;20041;-78
2022/08/07 01:38:34;;;;;;;8.23;3.92;;;9.90;99.90;;;;;;4967594;28;20406;-78
2022/08/07 01:41:02;;;;;;;5.15;3.80;;;9.90;99.90;;;;;;4969938;28;20082;-78
2022/08/07 01:43:29;;;;;;;5.45;3.47;;;9.80;99.90;;;;;;4975415;28;20023;-78
2022/08/07 01:45:56;;;;;;;7.72;4.18;;;9.70;99.90;;;;;;4969673;28;20023;-77
2022/08/07 01:48:23;;;;;;;5.53;3.55;;;9.70;99.90;;;;;;4969781;28;20037;-78
2022/08/07 01:50:57;;;;;;;7.55;3.95;;;9.70;99.90;;;;;;4969483;28;20023;-78
2022/08/07 01:53:24;;;;;;;6.88;3.60;;;9.70;99.90;;;;;;4969474;28;20022;-78
2022/08/07 01:55:56;;;;;;;6.57;4.05;;;9.70;99.90;;;;;;4969619;28;20038;-78
2022/08/07 01:58:22;;;;;;;;;;;9.70;99.90;;;;;;4968910;28;20030;-78
2022/08/07 02:00:56;;;;;;;5.75;3.95;;;9.70;99.90;;;;;;4969316;28;19910;-78
2022/08/07 02:03:23;;;;;;;5.07;3.33;;;9.70;99.90;;;;;;4969822;28;20031;-78
2022/08/07 02:06:01;;;;;;;6.25;3.22;;;9.70;99.90;;;;;;4969907;28;20041;-78
2022/08/07 02:08:28;;;;;;;5.85;3.85;;;9.70;99.90;;;;;;4969474;28;20015;-78
2022/08/07 02:10:58;;;;;;;5.93;3.53;;;9.70;99.90;;;;;;4969497;28;20031;-78
2022/08/07 02:13:26;;;;;;;6.15;3.88;;;9.60;99.90;;;;;;4970154;28;20026;-78
2022/08/07 02:15:53;;;;;;;5.13;3.47;;;9.60;99.90;;;;;;4968179;28;20045;-78
2022/08/07 02:18:20;;;;;;;5.95;3.55;;;9.50;99.90;;;;;;4969581;28;20023;-78
2022/08/07 02:20:50;;;;;;;6.35;3.40;;;9.50;99.90;;;;;;4962881;28;20471;-78
2022/08/07 02:23:17;;;;;;;4.45;3.38;;;9.50;99.90;;;;;;4968786;28;20019;-78
2022/08/07 02:25:44;;;;;;;5.45;3.75;;;9.50;99.90;;;;;;4968499;28;20031;-77
2022/08/07 02:28:11;;;;;;;8.77;3.40;;;9.50;99.90;;;;;;4968561;28;20464;-77
2022/08/07 02:30:38;;;;;;;5.85;3.83;;;9.50;99.90;;;;;;4968278;28;20038;-78
2022/08/07 02:33:05;;;;;;;5.65;3.40;;;9.50;99.90;;;;;;4968187;28;20096;-77
2022/08/07 02:35:33;;;;;;;4.68;3.22;;;9.40;99.90;;;;;;4966936;28;20023;-78
2022/08/07 02:38:02;;;;;;;6.43;3.63;;;9.40;99.90;;;;;;4974953;28;20376;-78
2022/08/07 02:40:30;;;;;;;5.18;3.08;;;9.40;99.90;;;;;;4967112;28;20054;-78
2022/08/07 02:42:57;;;;;;;7.65;3.60;;;9.30;99.90;;;;;;4968372;28;20027;-78
2022/08/07 02:45:26;;;;;;;4.97;3.40;;;9.40;99.90;;;;;;4967930;28;20030;-78
2022/08/07 02:47:52;;;;;;;4.65;3.10;;;9.40;99.90;;;;;;4967217;28;20031;-78
2022/08/07 02:50:18;;;;;;;5.50;3.63;;;9.40;99.90;;;;;;4970010;28;20108;-78
2022/08/07 02:52:53;;;;;;;5.38;3.30;;;9.40;99.90;;;;;;4971598;28;20057;-77
2022/08/07 02:55:25;;;;;;;4.35;2.63;;;9.40;99.90;;;;;;4963713;28;20034;-78
2022/08/07 02:57:53;;;;;;;6.75;3.35;;;9.40;99.90;;;;;;4970313;28;20468;-78
2022/08/07 03:00:19;;;;;;;4.35;2.90;;;9.40;99.90;;;;;;4971515;28;20377;-78
2022/08/07 03:02:47;;;;;;;9.38;3.05;;;9.20;99.90;;;;;;4970095;28;20190;-78
2022/08/07 03:05:15;;;;;;;6.97;3.38;;;9.20;99.90;;;;;;4970016;28;20062;-78
2022/08/07 03:07:41;;;;;;;7.47;3.53;;;9.10;99.90;;;;;;4971659;28;20046;-78
2022/08/07 03:10:08;;;;;;;8.30;3.40;;;9.10;99.90;;;;;;4971079;28;20027;-78
2022/08/07 03:12:35;;;;;;;4.10;3.10;;;9.00;99.90;;;;;;4963419;28;20042;-78
2022/08/07 03:15:01;;;;;;;4.70;3.25;;;9.00;99.90;;;;;;4971804;28;20471;-78
2022/08/07 03:17:28;;;;;;;5.47;3.40;;;9.10;99.90;;;;;;4971219;28;20019;-78
2022/08/07 03:19:55;;;;;;;5.82;3.10;;;9.10;99.90;;;;;;4971353;28;20049;-78
2022/08/07 03:22:22;;;;;;;5.63;3.28;;;9.00;99.90;;;;;;4969997;28;20019;-78
2022/08/07 03:24:48;;;;;;;5.25;2.85;;;9.00;99.90;;;;;;4970143;28;20027;-78
2022/08/07 03:27:15;;;;;;;5.03;3.70;;;8.90;99.90;;;;;;4971513;28;20076;-78
2022/08/07 03:29:50;;;;;;;3.55;2.97;;;8.80;99.90;;;;;;4971625;28;20023;-78
2022/08/07 03:32:21;;;;;;;5.47;3.50;;;8.80;99.90;;;;;;4971351;28;20519;-78
2022/08/07 03:34:49;;;;;;;6.28;3.30;;;8.70;99.90;;;;;;4971233;28;20035;-78
2022/08/07 03:37:18;;;;;;;4.60;2.88;;;8.70;99.90;;;;;;4970522;28;20015;-78
2022/08/07 03:39:46;;;;;;;7.00;3.28;;;8.70;99.90;;;;;;4970247;28;20106;-78
2022/08/07 03:42:14;;;;;;;6.75;3.42;;;8.70;99.90;;;;;;4969761;28;20401;-78
2022/08/07 03:44:40;;;;;;;4.45;3.38;;;8.80;99.90;;;;;;4970999;28;20484;-78
2022/08/07 03:47:06;;;;;;;3.35;2.75;;;8.90;99.90;;;;;;4971483;28;20027;-78
2022/08/07 03:49:33;;;;;;;4.00;2.97;;;9.00;99.90;;;;;;4971311;28;20039;-78
2022/08/07 03:52:00;;;;;;;4.32;3.10;;;9.00;99.90;;;;;;4971863;28;20026;-78
2022/08/07 03:54:26;;;;;;;3.50;2.88;;;8.90;99.90;;;;;;4971174;28;20113;-78
2022/08/07 03:56:56;;;;;;;4.55;2.88;;;8.80;99.90;;;;;;4971528;28;20050;-78
2022/08/07 03:59:22;;;;;;;6.13;2.92;;;8.70;99.90;;;;;;4971200;28;20423;-77
2022/08/07 04:01:48;;;;;;;4.13;3.05;;;8.70;99.90;;;;;;4968524;28;20018;-77
2022/08/07 04:04:18;;;;;;;4.38;2.92;;;8.70;99.90;;;;;;4969245;28;20454;-77
2022/08/07 04:06:44;;;;;;;4.22;2.92;;;8.70;99.90;;;;;;4970753;28;20475;-78
2022/08/07 04:09:12;;;;;;;4.35;2.75;;;8.60;99.90;;;;;;4968870;28;20117;-78
2022/08/07 04:11:38;;;;;;;3.67;2.55;;;8.60;99.90;;;;;;4977358;28;20049;-78
2022/08/07 04:14:05;;;;;;;4.68;3.28;;;8.80;99.90;;;;;;4971644;28;20035;-78
2022/08/07 04:16:32;;;;;;;5.18;2.75;;;8.90;99.90;;;;;;4971306;28;20023;-78
2022/08/07 04:18:58;;;;;;;3.33;2.67;;;9.00;99.90;;;;;;4971258;28;20045;-77
2022/08/07 04:21:24;;;;;;;5.45;3.10;;;9.10;99.90;;;;;;4969871;28;20360;-78
2022/08/07 04:23:50;;;;;;;4.10;3.08;;;9.00;99.90;;;;;;4970983;28;20038;-78
2022/08/07 04:26:16;;;;;;;4.88;3.38;;;9.00;99.90;;;;;;4971192;28;20627;-77
2022/08/07 04:28:42;;;;;;;6.63;2.83;;;9.00;99.90;;;;;;4970206;28;20019;-78
2022/08/07 04:31:09;;;;;;;3.90;2.78;;;8.90;99.90;;;;;;4970889;28;20027;-78
2022/08/07 04:33:39;;;;;;;4.57;2.50;;;8.90;99.90;;;;;;4969774;28;20018;-77
2022/08/07 04:36:09;;;;;;;5.40;3.08;;;8.80;99.90;;;;;;4970489;28;20030;-78
2022/08/07 04:38:36;;;;;;;4.32;2.63;;;8.80;99.90;;;;;;4970400;28;20076;-78
2022/08/07 04:41:02;;;;;;;4.63;2.97;;;8.70;99.90;;;;;;4969921;28;20034;-77
2022/08/07 04:43:37;;;;;;;6.72;3.35;;;8.70;99.90;;;;;;4976892;28;20042;-77
2022/08/07 04:46:09;;;;;;;4.03;2.70;;;8.70;99.90;;;;;;4970451;28;20023;-78
2022/08/07 04:48:52;;;;;;;6.53;3.00;;;8.70;99.90;;;;;;4970712;28;20064;-78
2022/08/07 04:51:50;;;;;;;4.70;3.17;;;8.80;99.90;;;;;;4970350;28;20753;-78
2022/08/07 04:54:35;;;;;;;5.57;2.88;;;8.90;99.90;;;;;;4969320;28;20034;-78
2022/08/07 04:57:12;;;;;;;3.33;3.03;;;8.90;99.90;;;;;;4970578;28;20037;-77
2022/08/07 04:59:56;;;;;;;6.95;3.17;;;8.80;99.90;;;;;;4970565;28;20014;-77
2022/08/07 05:02:38;;;;;;;4.68;3.03;;;8.80;99.90;;;;;;4970312;28;20057;-78
2022/08/07 05:05:08;;;;;;;;;;;8.90;99.90;;;;;;4970930;28;20109;-78
2022/08/07 05:07:34;;;;;;;4.97;2.75;;;8.80;99.90;;;;;;4968877;28;19945;-77
2022/08/07 05:10:15;;;;;;;4.32;2.28;;;8.80;99.90;;;;;;4968187;28;20050;-77
2022/08/07 05:12:51;;;;;;;3.08;2.78;;;8.70;99.90;;;;;;4962431;28;20046;-78
2022/08/07 05:15:25;;;;;;;4.28;2.80;;;8.80;99.90;;;;;;4969621;28;20383;-78
2022/08/07 05:18:28;;;;;;;3.75;3.17;;;8.80;99.90;;;;;;4967623;28;20026;-78
2022/08/07 05:20:57;;;;;;;4.18;2.40;;;8.80;99.90;;;;;;4964843;28;20042;-78
2022/08/07 05:23:44;;;;;;;3.15;2.47;;;8.90;99.90;;;;;;4969322;28;20019;-78
2022/08/07 05:26:15;;;;;;;4.90;3.35;;;8.90;99.90;;;;;;4967881;28;20624;-78
2022/08/07 05:28:42;;;;;;;4.22;2.80;;;9.00;99.90;;;;;;4967907;28;20157;-77
2022/08/07 05:31:12;;;;;;;4.93;3.10;;;9.10;99.90;;;;;;4968902;28;20120;-77
2022/08/07 05:33:40;;;;;;;4.38;2.60;;;9.10;99.90;;;;;;4969529;28;20417;-78
2022/08/07 05:36:07;;;;;;;4.07;2.63;;;9.10;99.90;;;;;;4967817;28;20027;-78
2022/08/07 05:38:34;;;;;;;5.15;2.40;;;9.20;99.90;;;;;;4967629;28;20019;-78
2022/08/07 05:41:01;;;;;;;2.53;2.30;;;9.30;99.90;;;;;;4968951;28;20037;-78
2022/08/07 05:43:28;;;;;;;4.47;2.80;;;9.40;99.90;;;;;;4969300;28;20023;-78
2022/08/07 05:45:55;;;;;;;2.72;2.20;;;9.50;99.90;;;;;;4969392;28;20541;-78
2022/08/07 05:48:22;;;;;;;2.85;2.25;;;9.50;99.90;;;;;;4969685;28;20102;-78
2022/08/07 05:50:48;;;;;;;2.85;2.20;;;9.70;99.90;;;;;;4969600;28;20026;-78
2022/08/07 05:53:14;;;;;;;4.30;2.28;;;9.70;99.90;;;;;;4969516;28;20954;-78
2022/08/07 05:55:41;;;;;;;4.15;2.72;;;9.80;99.90;;;;;;4968411;28;20039;-78
2022/08/07 05:58:08;;;;;;;2.75;2.03;;;9.90;99.90;;;;;;4969822;28;20026;-78
2022/08/07 06:00:36;;;;;;;3.67;2.70;;;10.00;99.90;;;;;;4969880;28;20046;-78
2022/08/07 06:03:04;;;;;;;4.70;2.58;;;10.20;99.90;;;;;;4969578;28;20023;-77
2022/08/07 06:05:30;;;;;;;6.40;2.97;;;10.30;99.90;;;;;;4969621;28;20018;-77
2022/08/07 06:08:00;;;;;;;2.55;2.13;;;10.50;99.90;;;;;;4968929;28;20023;-78
2022/08/07 06:10:27;;;;;;;10.02;3.38;;;10.60;99.90;;;;;;4967955;28;20054;-78
2022/08/07 06:12:53;;;;;;;4.00;2.13;;;10.70;99.90;;;;;;4968293;28;20667;-78
2022/08/07 06:15:19;;;;;;;4.93;2.40;;;11.00;99.90;;;;;;4969165;28;20045;-78
2022/08/07 06:17:46;;;;;;;2.67;2.15;;;11.30;99.90;;;;;;4969066;28;20126;-78
2022/08/07 06:20:12;;;;;;;4.03;2.00;;;11.60;99.90;;;;;;4969387;28;20035;-78
2022/08/07 06:22:40;;;;;;;4.30;2.20;;;12.00;99.90;;;;;;4969426;28;20030;-78
2022/08/07 06:25:06;;;;;;;1.65;1.55;;;12.40;99.90;;;;;;4970759;28;20117;-78
2022/08/07 06:27:32;;;;;;;3.42;2.38;;;12.70;99.90;;;;;;4971744;28;20122;-78
2022/08/07 06:29:59;;;;;;;4.38;2.22;;;13.10;99.90;;;;;;4972984;28;20088;-78
2022/08/07 06:32:25;;;;;;;3.20;1.63;;;13.40;99.90;;;;;;4971099;28;20438;-78
2022/08/07 06:34:51;;;;;;;3.50;2.00;;;13.50;99.90;;;;;;4971539;28;20062;-78
2022/08/07 06:37:17;;;;;;;5.50;2.08;;;13.60;99.90;;;;;;4971403;28;20054;-78
2022/08/07 06:39:42;;;;;;;3.08;1.98;;;13.60;99.90;;;;;;4971460;28;20054;-78
2022/08/07 06:42:19;;;;;;;4.00;2.63;;;13.80;99.90;;;;;;4972289;28;20035;-78
2022/08/07 06:44:48;;;;;;;5.65;2.30;;;13.90;99.90;;;;;;4971493;28;20096;-78
2022/08/07 06:47:14;;;;;;;4.97;2.25;;;14.00;99.90;;;;;;4972206;28;20391;-78
2022/08/07 06:49:41;;;;;;;4.95;2.50;;;14.00;99.90;;;;;;4972666;28;20042;-78
2022/08/07 06:52:09;;;;;;;5.00;2.70;;;14.10;99.90;;;;;;4972561;28;20084;-78
2022/08/07 06:54:38;;;;;;;6.28;3.35;;;14.00;99.90;;;;;;4971505;28;20045;-78
2022/08/07 06:57:07;;;;;;;3.78;2.45;;;14.10;99.90;;;;;;4972735;28;20019;-78
2022/08/07 06:59:36;;;;;;;5.50;3.03;;;14.10;99.90;;;;;;4972667;28;20031;-78
2022/08/07 07:02:04;;;;;;;4.22;2.72;;;14.20;99.90;;;;;;4970838;28;20034;-78
2022/08/07 07:04:31;;;;;;;3.45;3.03;;;14.40;99.90;;;;;;4977910;28;20057;-78
2022/08/07 07:06:57;;;;;;;4.20;2.67;;;14.50;99.90;;;;;;4972407;28;20038;-78
2022/08/07 07:09:25;;;;;;;4.88;3.13;;;14.60;99.90;;;;;;4971805;28;20026;-78
2022/08/07 07:12:07;;;;;;;4.68;2.72;;;14.70;99.90;;;;;;4972108;28;20030;-78
2022/08/07 07:14:53;;;;;;;3.33;2.70;;;14.80;99.90;;;;;;4964857;28;20026;-78
2022/08/07 07:17:32;;;;;;;2.85;2.50;;;15.10;99.90;;;;;;4981600;28;20565;-78
2022/08/07 07:20:01;;;;;;;6.00;3.25;;;15.20;99.90;;;;;;4978489;28;20025;-78
2022/08/07 07:22:28;;;;;;;5.80;3.05;;;15.30;99.90;;;;;;4972039;28;20050;-78
2022/08/07 07:24:55;;;;;;;7.00;2.78;;;15.40;99.90;;;;;;4971838;28;20038;-78
2022/08/07 07:27:24;;;;;;;5.25;2.95;;;15.50;99.90;;;;;;4971989;28;20537;-78
2022/08/07 07:29:55;;;;;;;4.60;2.80;;;15.60;99.90;;;;;;4971839;28;20636;-79
2022/08/07 07:32:23;;;;;;;3.15;2.40;;;15.80;99.90;;;;;;4971420;28;20498;-79
2022/08/07 07:34:54;;;;;;;2.90;2.42;;;15.90;99.90;;;;;;4978098;28;20023;-79
2022/08/07 07:37:22;;;;;;;4.90;2.83;;;16.00;99.90;;;;;;4965615;28;20623;-78
2022/08/07 07:39:52;;;;;;;2.33;2.10;;;16.30;99.90;;;;;;4970621;28;20058;-79
2022/08/07 07:42:20;;;;;;;4.25;2.50;;;16.40;99.90;;;;;;4970976;28;20015;-79
2022/08/07 07:44:48;;;;;;;3.20;2.58;;;16.40;99.90;;;;;;4971691;28;20065;-79
2022/08/07 07:47:16;;;;;;;3.90;2.28;;;16.50;99.90;;;;;;4972525;28;20384;-79
2022/08/07 07:49:44;;;;;;;4.13;1.90;;;16.60;99.90;;;;;;4971098;28;20041;-79
2022/08/07 07:52:11;;;;;;;4.22;1.67;;;16.70;99.90;;;;;;4971496;28;20412;-79
2022/08/07 07:54:40;;;;;;;2.67;2.00;;;16.80;99.90;;;;;;4971110;28;20053;-80
2022/08/07 07:57:07;;;;;;;3.35;1.80;;;16.90;99.90;;;;;;4971593;28;20023;-79
2022/08/07 07:59:37;;;;;;;3.72;1.70;;;17.10;99.90;;;;;;4971611;28;20015;-79
2022/08/07 08:02:04;;;;;;;2.90;1.40;;;17.10;99.90;;;;;;4970827;28;20018;-79
2022/08/07 08:04:31;;;;;;;2.30;1.73;;;17.20;99.90;;;;;;4970415;28;20015;-79
2022/08/07 08:06:59;;;;;;;2.83;1.75;;;17.30;99.90;;;;;;4971121;28;20031;-78
2022/08/07 08:09:27;;;;;;;2.00;1.70;;;17.40;99.90;;;;;;4969790;28;20023;-79
2022/08/07 08:11:53;;;;;;;2.97;1.73;;;17.60;99.90;;;;;;4971069;28;20402;-79
2022/08/07 08:14:20;;;;;;;3.13;1.20;;;17.70;99.90;;;;;;4971106;28;20027;-79
2022/08/07 08:16:46;;;;;;;3.17;1.60;;;17.80;99.90;;;;;;4970829;28;20035;-79
2022/08/07 08:19:23;;;;;;;5.28;1.88;;;18.00;99.90;;;;;;4971311;28;20069;-78
2022/08/07 08:27:28;;;;;;;2.75;1.70;;;18.20;99.90;;;;;;4965068;28;20034;-79
2022/08/07 08:30:03;;;;;;;2.67;1.45;;;18.30;99.90;;;;;;4970847;28;20361;-83
2022/08/07 08:32:34;;;;;;;3.78;1.30;;;18.30;99.90;;;;;;4970240;28;20023;-82
2022/08/07 08:35:01;;;;;;;3.15;1.55;;;18.50;99.90;;;;;;4968946;28;20023;-79
2022/08/07 08:37:30;;;;;;;5.55;1.35;;;18.60;99.90;;;;;;4970690;28;20019;-79
2022/08/07 08:39:56;;;;;;;2.95;1.17;;;18.70;93.30;;;;;;4970340;28;20106;-79
2022/08/07 08:42:51;;;;;;;3.75;1.60;;;18.80;89.20;;;;;;4970835;28;20523;-82
2022/08/07 08:45:45;;;;;;;2.42;1.35;;;18.90;89.20;;;;;;4971007;28;20019;-79
2022/08/07 08:48:34;;;;;;;1.50;1.10;;;19.10;86.90;;;;;;4976572;28;20107;-79
2022/08/07 08:51:20;;;;;;;1.45;1.30;;;19.30;71.60;;;;;;4963925;28;20059;-79
2022/08/07 08:53:53;;;;;;;2.30;1.15;;;19.50;68.80;;;;;;4973475;28;20507;-85
2022/08/07 08:56:27;;;;;;;1.50;1.25;;;19.70;68.40;;;;;;4970632;28;20043;-84
2022/08/07 08:58:59;;;;;;;1.20;1.10;;;20.10;68.70;;;;;;4970397;28;20090;-83
2022/08/07 09:01:55;;;;;;;1.55;1.27;;;20.60;66.40;;;;;;4969848;28;20027;-80
2022/08/07 09:04:40;;;;;;;2.30;1.55;;;21.30;58.10;;;;;;4967448;28;20082;-81
2022/08/07 09:07:31;;;;;;;1.90;1.52;;;21.70;53.50;;;;;;4968752;28;20025;-81
2022/08/07 09:10:10;;;;;;;6.68;1.58;;;22.00;53.80;;;;;;4969944;28;20027;-81
2022/08/07 09:12:47;;;;;;;7.40;1.60;;;22.50;53.40;;;;;;4969570;28;20023;-80
2022/08/07 09:15:42;;;;;;;2.35;1.42;;;23.40;51.30;;;;;;4970303;28;20592;-79
2022/08/07 09:18:45;;;;;;;11.20;2.60;;;24.00;47.80;;;;;;4970110;28;20023;-79
2022/08/07 09:21:25;;;;;;;2.92;1.23;;;24.90;45.30;;;;;;4965348;28;20105;-79
2022/08/07 09:24:09;;;;;;;2.80;1.48;;;26.00;42.80;;;;;;4969238;28;20073;-79
2022/08/07 09:26:55;;;;;;;2.20;1.52;;;26.30;39.40;;;;;;4963522;28;20034;-79
2022/08/07 09:29:38;;;;;;;3.42;1.58;;;26.00;38.90;;;;;;4964016;28;20022;-79
2022/08/07 09:32:29;;;;;;;2.00;1.50;;;25.60;38.50;;;;;;4968870;28;20080;-79
2022/08/07 09:35:17;;;;;;;6.32;1.58;;;25.40;40.90;;;;;;4969710;28;20023;-79
2022/08/07 09:38:27;;;;;;;3.00;1.20;;;26.10;37.60;;;;;;4969234;28;20062;-80
2022/08/07 09:41:07;;;;;;;1.58;1.35;;;27.10;36.20;;;;;;5008726;28;20026;-80
2022/08/07 09:43:33;;;;;;;1.77;1.50;;;28.10;34.90;;;;;;5006047;28;20041;-79
2022/08/07 09:46:27;;;;;;;3.88;1.60;;;28.60;32.90;;;;;;4985631;28;20035;-79
2022/08/07 09:48:55;;;;;;;1.65;1.25;;;29.90;31.90;;;;;;4967915;28;20057;-80
2022/08/07 09:51:21;;;;;;;2.42;1.27;;;30.20;29.60;;;;;;4967917;28;20075;-80
2022/08/07 09:53:51;;;;;;;2.85;1.13;;;30.80;29.40;;;;;;4967733;28;20023;-80
2022/08/07 09:56:48;;;;;;;3.50;1.50;;;31.30;28.70;;;;;;4974962;28;20066;-80
2022/08/07 09:59:52;;;;;;;2.28;1.17;;;32.40;29.30;;;;;;4985075;28;20791;-80
2022/08/07 10:02:33;;;;;;;4.38;1.52;;;33.40;26.50;;;;;;5023060;28;20117;-80
2022/08/07 10:05:16;;;;;;;4.15;1.48;;;33.40;26.30;;;;;;5027939;28;20152;-81
2022/08/07 10:08:08;;;;;;;2.53;1.15;;;33.80;25.40;;;;;;4990560;28;20110;-81
2022/08/07 10:11:09;;;;;;;3.97;1.20;;;34.20;25.00;;;;;;4968956;28;20060;-81
2022/08/07 10:13:34;;;;;;;;;;;33.80;24.40;;;;;;4969990;28;20042;-80
2022/08/07 10:16:00;;;;;;;2.10;0.93;;;33.70;25.40;;;;;;4968553;28;20274;-80
2022/08/07 10:18:59;;;;;;;2.05;0.90;;;35.00;25.00;;;;;;4969306;28;20631;-81
2022/08/07 10:21:47;;;;;;;2.97;1.10;;;35.50;24.00;;;;;;4966612;28;20077;-80
2022/08/07 10:24:44;;;;;;;1.30;1.05;;;35.70;24.10;;;;;;4969341;28;20553;-81
2022/08/07 10:27:24;;;;;;;2.92;1.13;;;35.90;23.00;;;;;;4969697;28;20050;-81
2022/08/07 10:30:05;;;;;;;2.17;1.30;;;36.10;24.00;;;;;;4969642;28;20102;-81
2022/08/07 10:32:46;;;;;;;3.08;1.13;;;35.90;22.80;;;;;;4969316;28;20426;-83
2022/08/07 10:35:19;;;;;;;2.60;1.25;;;35.80;27.60;;;;;;4969490;28;20117;-81
2022/08/07 10:38:20;;;;;;;4.57;1.15;;;36.60;26.70;;;;;;4969829;28;20023;-81
2022/08/07 10:41:02;;;;;;;2.63;1.27;;;36.60;27.10;;;;;;4972207;28;20049;-84
2022/08/07 10:43:42;;;;;;;2.00;1.35;;;36.30;26.90;;;;;;4971466;28;20023;-82
2022/08/07 10:46:34;;;;;;;2.25;0.80;;;35.90;27.00;;;;;;4968850;28;20027;-80
2022/08/07 10:49:31;;;;;;;1.67;1.10;;;35.80;27.20;;;;;;4968794;28;20023;-81
2022/08/07 10:52:05;;;;;;;3.90;1.17;;;36.80;26.70;;;;;;4969177;28;20106;-80
2022/08/07 10:54:53;;;;;;;1.35;0.70;;;36.90;25.60;;;;;;4968857;28;20030;-80
2022/08/07 10:57:32;;;;;;;2.05;1.00;;;37.30;25.80;;;;;;4976087;28;20030;-80
2022/08/07 11:00:08;;;;;;;3.00;1.20;;;37.70;25.40;;;;;;4968742;28;20515;-80
2022/08/07 11:03:04;;;;;;;2.50;0.95;;;38.10;24.30;;;;;;4969050;28;20027;-81
2022/08/07 11:05:50;;;;;;;2.35;1.00;;;38.00;24.30;;;;;;4975685;28;20027;-80
2022/08/07 11:08:42;;;;;;;2.50;1.15;;;37.30;25.60;;;;;;4961190;28;20015;-80
2022/08/07 11:11:23;;;;;;;2.45;1.02;;;37.40;26.30;;;;;;4966435;28;20019;-80
2022/08/07 11:14:06;;;;;;;2.45;1.20;;;38.30;24.50;;;;;;4966228;28;20391;-80
2022/08/07 11:16:56;;;;;;;1.90;0.93;;;38.50;25.80;;;;;;4966231;28;20530;-81
2022/08/07 11:19:48;;;;;;;3.28;1.00;;;39.10;25.10;;;;;;4966214;28;20018;-80
2022/08/07 11:22:23;;;;;;;1.90;0.90;;;39.20;24.00;;;;;;4968710;28;20023;-81
2022/08/07 11:25:15;;;;;;;1.52;0.95;;;39.30;24.30;;;;;;4972566;28;20491;-81
2022/08/07 11:28:03;;;;;;;1.15;0.80;;;39.10;24.20;;;;;;4968295;28;20092;-80
2022/08/07 11:30:41;;;;;;;3.22;1.10;;;38.80;24.90;;;;;;4971122;28;20029;-81
2022/08/07 11:33:20;;;;;;;2.00;0.80;;;38.90;24.40;;;;;;4972037;28;20031;-81
2022/08/07 11:36:10;;;;;;;2.13;0.98;;;39.30;23.60;;;;;;4971597;28;20062;-79
2022/08/07 11:38:57;;;;;;;2.22;1.00;;;39.80;24.30;;;;;;4968071;28;20019;-81
2022/08/07 11:41:31;;;;;;;4.15;1.27;;;39.80;24.20;;;;;;4971789;28;20379;-80
2022/08/07 11:44:07;;;;;;;2.25;1.30;;;39.90;23.30;;;;;;4970201;28;20507;-80
2022/08/07 11:47:03;;;;;;;2.80;0.95;;;39.00;24.00;;;;;;4965703;28;20015;-80
2022/08/07 11:49:55;;;;;;;3.00;1.00;;;39.90;23.00;;;;;;4998972;28;20060;-80
2022/08/07 11:52:52;;;;;;;4.13;1.10;;;40.20;23.50;;;;;;4971383;28;20034;-81
2022/08/07 11:56:14;;;;;;;1.73;0.95;;;40.60;23.10;;;;;;4971529;28;20035;-81
2022/08/07 11:58:40;;;;;;;1.60;0.90;;;40.60;23.50;;;;;;4965923;28;20031;-81
2022/08/07 12:02:04;;;;;;;2.30;1.02;;;40.40;23.70;;;;;;4969204;28;20419;-81
2022/08/07 12:04:59;;;;;;;3.05;0.77;;;40.30;22.90;;;;;;4958563;28;20037;-82
2022/08/07 12:07:27;;;;;;;1.35;0.88;;;40.80;22.80;;;;;;4984963;28;20032;-81
2022/08/07 12:10:29;;;;;;;1.48;0.95;;;40.50;23.00;;;;;;4988302;28;20376;-80
2022/08/07 12:13:26;;;;;;;3.15;0.90;;;39.80;23.60;;;;;;4981463;28;20058;-80
2022/08/07 12:15:57;;;;;;;1.35;0.90;;;39.70;23.30;;;;;;5000346;28;20028;-79
2022/08/07 12:18:52;;;;;;;3.97;1.38;;;39.90;23.40;;;;;;4996416;28;20061;-80
2022/08/07 12:21:38;;;;;;;1.88;1.15;;;38.80;22.80;;;;;;4991532;28;20168;-79
2022/08/07 12:24:39;;;;;;;1.42;1.05;;;38.70;22.80;;;;;;4973511;28;20019;-79
2022/08/07 12:27:10;;;;;;;2.80;1.13;;;38.00;23.30;;;;;;5007175;28;20027;-80
2022/08/07 12:30:12;;;;;;;3.47;1.00;;;38.20;24.20;;;;;;5005772;28;20016;-80
2022/08/07 12:32:41;;;;;;;3.50;1.00;;;38.70;23.60;;;;;;4973509;28;20025;-79
2022/08/07 12:35:09;;;;;;;1.88;1.17;;;37.90;23.00;;;;;;4979641;28;20057;-82
2022/08/07 12:37:38;;;;;;;3.42;1.02;;;38.90;22.70;;;;;;5021216;28;20103;-81
2022/08/07 12:40:06;;;;;;;2.83;1.17;;;39.00;23.50;;;;;;4984402;28;20019;-80
2022/08/07 12:42:33;;;;;;;2.80;1.02;;;39.10;23.00;;;;;;4980672;28;20022;-80
2022/08/07 12:45:07;;;;;;;1.70;1.00;;;39.50;22.30;;;;;;4973831;28;20023;-79
2022/08/07 12:48:01;;;;;;;1.52;1.00;;;39.40;22.00;;;;;;5021819;28;20032;-80
2022/08/07 12:50:58;;;;;;;1.20;1.10;;;39.40;22.40;;;;;;4986257;28;20030;-81
2022/08/07 12:54:08;;;;;;;1.42;0.82;;;38.80;22.60;;;;;;5031964;28;20045;-81
2022/08/07 12:56:41;;;;;;;1.48;0.80;;;39.20;24.70;;;;;;4976385;28;20036;-79
2022/08/07 12:59:10;;;;;;;2.72;1.00;;;39.70;23.30;;;;;;4981799;28;20025;-79
2022/08/07 13:02:01;;;;;;;1.58;1.00;;;41.00;22.60;;;;;;4975275;28;20038;-79
2022/08/07 13:04:45;;;;;;;3.78;1.20;;;41.60;21.60;;;;;;5016371;28;20019;-79
2022/08/07 13:07:45;;;;;;;1.88;1.00;;;41.60;22.00;;;;;;4994994;28;20026;-79
2022/08/07 13:10:35;;;;;;;3.28;1.10;;;42.00;21.90;;;;;;4979671;28;20072;-78
2022/08/07 13:13:16;;;;;;;1.60;0.90;;;40.40;21.40;;;;;;4982441;28;20092;-79
2022/08/07 13:16:12;;;;;;;3.42;1.30;;;40.10;21.80;;;;;;4989920;28;20048;-79
2022/08/07 13:19:15;;;;;;;1.40;1.20;;;40.60;23.00;;;;;;4982407;28;20120;-78
2022/08/07 13:21:51;;;;;;;1.00;0.90;;;40.70;21.90;;;;;;4969777;28;20026;-78
2022/08/07 13:24:35;;;;;;;2.65;1.00;;;40.30;21.70;;;;;;5001405;28;20016;-79
2022/08/07 13:27:04;;;;;;;2.70;1.20;;;39.70;22.50;;;;;;5002872;28;20016;-79
2022/08/07 13:29:37;;;;;;;2.75;1.10;;;40.00;22.40;;;;;;5014238;28;20015;-78
2022/08/07 13:32:40;;;;;;;1.77;1.30;;;40.00;22.50;;;;;;4970416;28;20080;-80